Barfleur — FNIE — position and weather

sailwx.info

Track history (hours):
 
Tides and Currents Weather Stations Pressure Air Temp Water Temp Dewpoint Dewpoint Depression Visibility Wind Speed Wind Dir Waves Ship Positions

Barfleur

Operator: Brittany Ferries

Last reported at 2017-May-27 02:00 UTC. Time now 2017-May-27 02:17 UTC.
Position N 50°42' W 001°59'.

Length 158 m; draft 5 m.

Type: Passenger vessel. MMSI: 227289000.

Date/timePositionNaut miles runAvg speedWind from/ knotsBaromVisibWave heightAir tempDewpointWater temp
2017-May-27 02:00N 50°42' W 001°59'0 0.0
2017-May-27 01:30N 50°42' W 001°59'0 0.0
2017-May-27 01:00N 50°42' W 001°59'0 0.0
2017-May-27 00:30N 50°42' W 001°59'0 0.0
2017-May-27 00:00N 50°42' W 001°59'0 0.0
2017-May-26 23:30N 50°42' W 001°59'0 0.0
2017-May-26 23:00N 50°42' W 001°59'0 0.0
2017-May-26 22:30N 50°42' W 001°59'0 0.0
2017-May-26 22:00N 50°42' W 001°59'0 0.0
2017-May-26 21:30N 50°42' W 001°59'0 0.0
2017-May-26 21:00N 50°42' W 001°59'0 0.5
2017-May-26 20:30N 50°42' W 001°59'510.2
2017-May-26 20:01N 50°38' W 001°54'918.0
2017-May-26 19:31N 50°30' W 001°49'917.6
2017-May-26 19:00N 50°21' W 001°46'1017.8
2017-May-26 18:28N 50°12' W 001°43'9 0.9
2017-May-26 09:08N 50°20' W 001°49'217.8
2017-May-26 09:00N 50°22' W 001°49'917.8
2017-May-26 08:30N 50°31' W 001°51'816.8
2017-May-26 08:00N 50°39' W 001°55'5 9.1
2017-May-26 07:30N 50°42' W 001°59'0 0.1
2017-May-26 07:00N 50°42' W 001°59'0 0.0
2017-May-26 06:30N 50°42' W 001°59'0 0.0
2017-May-26 06:00N 50°42' W 001°59'0 0.0
2017-May-26 05:30N 50°42' W 001°59'0 0.0
2017-May-26 05:00N 50°42' W 001°59'0 0.0
2017-May-26 04:30N 50°42' W 001°59'0 0.0
2017-May-26 04:00N 50°42' W 001°59'0 0.0
2017-May-26 03:30N 50°42' W 001°59'0 0.0
2017-May-26 03:00N 50°42' W 001°59'0 0.0
2017-May-26 02:30N 50°42' W 001°59'0 0.0
2017-May-26 02:00N 50°42' W 001°59'0 0.0
2017-May-26 01:30N 50°42' W 001°59'0 0.0
2017-May-26 01:00N 50°42' W 001°59'0 0.0
2017-May-26 00:30N 50°42' W 001°59'0 0.0
2017-May-26 00:00N 50°42' W 001°59'0 0.0
2017-May-25 23:30N 50°42' W 001°59'0 0.0
2017-May-25 23:00N 50°42' W 001°59'0 0.0
2017-May-25 22:30N 50°42' W 001°59'0 0.0
2017-May-25 22:00N 50°42' W 001°59'0 0.0
2017-May-25 21:30N 50°42' W 001°59'0 0.0
2017-May-25 21:00N 50°42' W 001°59'0 0.2
2017-May-25 20:30N 50°42' W 001°59'510.0
2017-May-25 20:00N 50°38' W 001°55'1018.2
2017-May-25 19:29N 50°29' W 001°51'1717.8
2017-May-25 18:32N 50°12' W 001°48'017.7
2017-May-25 18:30N 50°12' W 001°47'1617.9
2017-May-25 17:37N 49°56' W 001°44'1717.0
2017-May-25 16:38N 49°40' W 001°38'12 1.9
2017-May-25 10:37N 49°51' W 001°43'218.4
2017-May-25 10:30N 49°53' W 001°44'918.4
2017-May-25 10:00N 50°02' W 001°45'918.5
2017-May-25 09:30N 50°12' W 001°46'1818.3
2017-May-25 08:32N 50°29' W 001°51'117.9
2017-May-25 08:29N 50°30' W 001°52'817.5
2017-May-25 08:00N 50°38' W 001°54'510.5
2017-May-25 07:30N 50°42' W 001°59'0 0.9
2017-May-25 07:00N 50°42' W 001°59'0 0.0
2017-May-25 06:30N 50°42' W 001°59'0 0.0
2017-May-25 06:00N 50°42' W 001°59'1 1.6
2017-May-25 05:30N 50°42' W 001°58'611.4
2017-May-25 05:01N 50°37' W 001°54'917.1
2017-May-25 04:30N 50°29' W 001°49'1414.9
2017-May-25 03:35N 50°16' W 001°47'114.6
2017-May-25 03:30N 50°14' W 001°47'1014.5
2017-May-25 02:47N 50°04' W 001°47'23 4.5
2017-May-24 21:45N 49°45' W 001°27'0 0.2
2017-May-24 21:27N 49°45' W 001°27'6 8.0
2017-May-24 20:43N 49°42' W 001°34'311.5
2017-May-24 20:27N 49°40' W 001°37'4 0.8
2017-May-24 14:49N 49°44' W 001°39'1 1.3
2017-May-24 14:22N 49°44' W 001°38'2 2.5
2017-May-24 13:24N 49°41' W 001°39'1 0.6
2017-May-24 11:22N 49°40' W 001°39'716.0
2017-May-24 10:55N 49°47' W 001°43'817.9
2017-May-24 10:28N 49°55' W 001°45'917.4
2017-May-24 09:57N 50°04' W 001°45'816.7
2017-May-24 09:30N 50°11' W 001°46'916.6
2017-May-24 08:59N 50°20' W 001°48'1018.7
2017-May-24 08:28N 50°29' W 001°51'818.2
2017-May-24 08:01N 50°37' W 001°54'611.3
2017-May-24 07:30N 50°42' W 001°59'1 1.1
2017-May-24 07:00N 50°42' W 001°59'0 0.0
2017-May-24 06:30N 50°42' W 001°59'0 0.0
2017-May-24 06:00N 50°42' W 001°59'2 3.3
2017-May-24 05:30N 50°42' W 001°57'713.0
2017-May-24 05:00N 50°36' W 001°53'7 0.3
2017-May-23 08:31N 50°29' W 001°51'218.3
2017-May-23 08:26N 50°30' W 001°51'818.2
2017-May-23 08:00N 50°38' W 001°54'510.9
2017-May-23 07:31N 50°42' W 001°59'0 0.4
2017-May-23 07:00N 50°42' W 001°59'0 0.0
2017-May-23 06:31N 50°42' W 001°59'0 0.0
2017-May-23 06:01N 50°42' W 001°59'0 0.0
2017-May-23 05:30N 50°42' W 001°59'0 0.0
2017-May-23 05:01N 50°42' W 001°59'0 0.0
2017-May-23 04:31N 50°42' W 001°59'0 0.0
2017-May-23 04:01N 50°42' W 001°59'0 0.0
2017-May-23 03:30N 50°42' W 001°59'0 0.0
2017-May-23 03:01N 50°42' W 001°59'0 0.0
2017-May-23 02:30N 50°42' W 001°59'0 0.0
2017-May-23 02:01N 50°42' W 001°59'0 0.0
2017-May-23 01:30N 50°42' W 001°59'0 0.0
2017-May-23 01:01N 50°42' W 001°59'0 0.0
2017-May-23 00:31N 50°42' W 001°59'0 0.0
2017-May-23 00:01N 50°42' W 001°59'0 0.0
2017-May-22 23:31N 50°42' W 001°59'0 0.0
2017-May-22 23:00N 50°42' W 001°59'0 0.0
2017-May-22 22:31N 50°42' W 001°59'0 0.0
2017-May-22 22:01N 50°42' W 001°59'0 0.0
2017-May-22 21:31N 50°42' W 001°59'0 0.0
2017-May-22 21:00N 50°42' W 001°59'2 4.7
2017-May-22 20:31N 50°41' W 001°57'510.5
2017-May-22 20:00N 50°36' W 001°53'815.9
2017-May-22 19:30N 50°28' W 001°51'32 3.4
2017-May-22 10:20N 49°57' W 001°43'716.5
2017-May-22 09:54N 50°04' W 001°45'716.8
2017-May-22 09:30N 50°10' W 001°46'1018.2
2017-May-22 08:58N 50°20' W 001°48'918.2
2017-May-22 08:28N 50°29' W 001°52'918.5
2017-May-22 08:00N 50°37' W 001°54'611.7
2017-May-22 07:30N 50°42' W 001°59'0 1.0
2017-May-22 07:00N 50°42' W 001°59'0 0.0
2017-May-22 06:30N 50°42' W 001°59'0 0.0
2017-May-22 06:00N 50°42' W 001°59'0 0.0
2017-May-22 05:30N 50°42' W 001°59'0 0.0
2017-May-22 05:00N 50°42' W 001°59'0 0.0
2017-May-22 04:30N 50°42' W 001°59'0 0.0
2017-May-22 04:00N 50°42' W 001°59'0 0.0
2017-May-22 03:30N 50°42' W 001°59'0 0.0
2017-May-22 03:00N 50°42' W 001°59'0 0.0
2017-May-22 02:30N 50°42' W 001°59'0 0.0
2017-May-22 02:00N 50°42' W 001°59'0 0.0
2017-May-22 01:30N 50°42' W 001°59'0 0.0
2017-May-22 01:00N 50°42' W 001°59'0 0.0
2017-May-22 00:30N 50°42' W 001°59'0 0.0
2017-May-22 00:00N 50°42' W 001°59'0 0.0
2017-May-21 23:30N 50°42' W 001°59'0 0.0
2017-May-21 23:00N 50°42' W 001°59'0 0.0
2017-May-21 22:30N 50°42' W 001°59'0 0.0
2017-May-21 22:00N 50°42' W 001°59'0 0.0
2017-May-21 21:30N 50°42' W 001°59'0 0.0
2017-May-21 21:00N 50°42' W 001°59'0 0.2
2017-May-21 20:31N 50°42' W 001°59'4 8.1
2017-May-21 20:00N 50°39' W 001°55'917.5
2017-May-21 19:30N 50°31' W 001°51'918.4
2017-May-21 19:00N 50°22' W 001°49'1018.2
2017-May-21 18:29N 50°12' W 001°47'7 0.8
2017-May-21 09:03N 50°19' W 001°50'117.8
2017-May-21 09:00N 50°20' W 001°51'1117.9
2017-May-21 08:25N 50°30' W 001°54'818.4
2017-May-21 08:00N 50°38' W 001°54'510.3
2017-May-21 07:31N 50°42' W 001°59'0 1.0
2017-May-21 07:01N 50°42' W 001°59'0 0.0
2017-May-21 06:31N 50°42' W 001°59'0 0.0
2017-May-21 06:00N 50°42' W 001°59'0 0.0
2017-May-21 05:30N 50°42' W 001°59'0 0.0
2017-May-21 05:01N 50°42' W 001°59'0 0.0
2017-May-21 04:31N 50°42' W 001°59'0 0.0
2017-May-21 04:01N 50°42' W 001°59'0 0.0
2017-May-21 03:30N 50°42' W 001°59'0 0.0
2017-May-21 03:01N 50°42' W 001°59'0 0.0
2017-May-21 02:30N 50°42' W 001°59'0 0.0
2017-May-21 02:01N 50°42' W 001°59'0 0.0
2017-May-21 01:31N 50°42' W 001°59'0 0.0
2017-May-21 01:01N 50°42' W 001°59'0 0.0
2017-May-21 00:30N 50°42' W 001°59'0 0.0
2017-May-21 00:01N 50°42' W 001°59'0 0.0
2017-May-20 23:30N 50°42' W 001°59'0 0.0
2017-May-20 23:01N 50°42' W 001°59'0 0.0
2017-May-20 22:31N 50°42' W 001°59'0 0.0
2017-May-20 22:00N 50°42' W 001°59'0 0.0
2017-May-20 21:30N 50°42' W 001°59'0 0.0
2017-May-20 21:00N 50°42' W 001°59'0 0.2
2017-May-20 20:31N 50°42' W 001°60'4 7.6
2017-May-20 20:01N 50°40' W 001°55'816.8
2017-May-20 19:30N 50°31' W 001°51'3 0.2
2017-May-20 08:26N 50°29' W 001°53'716.8
2017-May-20 08:00N 50°36' W 001°54'613.0
2017-May-20 07:30N 50°42' W 001°58'1 2.3
2017-May-20 07:00N 50°42' W 001°59'0 0.0
2017-May-20 06:30N 50°42' W 001°59'0 0.0
2017-May-20 06:00N 50°42' W 001°59'0 0.0
2017-May-20 05:30N 50°42' W 001°59'0 0.0
2017-May-20 05:00N 50°42' W 001°59'0 0.0
2017-May-20 04:30N 50°42' W 001°59'0 0.0
2017-May-20 04:00N 50°42' W 001°59'0 0.0
2017-May-20 03:30N 50°42' W 001°59'0 0.0
2017-May-20 03:00N 50°42' W 001°59'0 0.0
2017-May-20 02:30N 50°42' W 001°59'0 0.0
2017-May-20 02:00N 50°42' W 001°59'0 0.0
2017-May-20 01:30N 50°42' W 001°59'0 0.0
2017-May-20 01:00N 50°42' W 001°59'0 0.0
2017-May-20 00:30N 50°42' W 001°59'0 0.0
2017-May-20 00:00N 50°42' W 001°59'0 0.0
2017-May-19 23:30N 50°42' W 001°59'0 0.0
2017-May-19 23:00N 50°42' W 001°59'0 0.0
2017-May-19 22:30N 50°42' W 001°59'0 0.0
2017-May-19 22:00N 50°42' W 001°59'0 0.0
2017-May-19 21:30N 50°42' W 001°59'0 0.0
2017-May-19 21:00N 50°42' W 001°59'0 0.1
2017-May-19 20:31N 50°42' W 001°59'3 5.8
2017-May-19 20:00N 50°40' W 001°56'815.2
2017-May-19 19:29N 50°33' W 001°52'4 0.4
2017-May-19 08:23N 50°29' W 001°51'717.6
2017-May-19 08:01N 50°36' W 001°54'713.7
2017-May-19 07:30N 50°42' W 001°58'1 2.5
2017-May-19 07:00N 50°42' W 001°59'0 0.0
2017-May-19 06:30N 50°42' W 001°59'0 0.0
2017-May-19 06:00N 50°42' W 001°59'0 0.0
2017-May-19 05:30N 50°42' W 001°59'0 0.0
2017-May-19 05:00N 50°42' W 001°59'0 0.0
2017-May-19 04:31N 50°42' W 001°59'0 0.0
2017-May-19 04:00N 50°42' W 001°59'0 0.0
2017-May-19 03:30N 50°42' W 001°59'0 0.0
2017-May-19 03:00N 50°42' W 001°59'0 0.0
2017-May-19 02:30N 50°42' W 001°59'0 0.0
2017-May-19 02:01N 50°42' W 001°59'0 0.0
2017-May-19 01:30N 50°42' W 001°59'0 0.0
2017-May-19 01:00N 50°42' W 001°59'0 0.0
2017-May-19 00:31N 50°42' W 001°59'0 0.0
2017-May-19 00:00N 50°42' W 001°59'0 0.0
2017-May-18 23:30N 50°42' W 001°59'0 0.0
2017-May-18 23:01N 50°42' W 001°59'0 0.0
2017-May-18 22:30N 50°42' W 001°59'0 0.0
2017-May-18 22:00N 50°42' W 001°59'0 0.0
2017-May-18 21:30N 50°42' W 001°59'0 0.0
2017-May-18 21:00N 50°42' W 001°59'0 0.2
2017-May-18 20:30N 50°42' W 001°59'4 8.4
2017-May-18 20:00N 50°39' W 001°55'816.9
2017-May-18 19:30N 50°31' W 001°51'1 0.1
2017-May-18 08:37N 50°31' W 001°52'218.3
2017-May-18 08:30N 50°33' W 001°53'815.6
2017-May-18 08:00N 50°40' W 001°56'3 6.0
2017-May-18 07:30N 50°42' W 001°59'0 0.0
2017-May-18 07:00N 50°42' W 001°59'0 0.0
2017-May-18 06:30N 50°42' W 001°59'0 0.0
2017-May-18 06:00N 50°42' W 001°59'1 2.8
2017-May-18 05:30N 50°42' W 001°57'611.9
2017-May-18 05:00N 50°37' W 001°53'9 0.5
2017-May-17 08:46N 50°27' W 001°51'518.0
2017-May-17 08:30N 50°32' W 001°52'816.7
2017-May-17 08:00N 50°40' W 001°56'3 6.8
2017-May-17 07:30N 50°42' W 001°59'0 0.0
2017-May-17 07:00N 50°42' W 001°59'0 0.0
2017-May-17 06:30N 50°42' W 001°59'0 0.0
2017-May-17 06:00N 50°42' W 001°59'2 3.5
2017-May-17 05:30N 50°41' W 001°57'612.8
2017-May-17 05:00N 50°36' W 001°54'714.3
2017-May-17 04:30N 50°28' W 001°52'  
Track history (hours):
 
Tides and Currents Weather Stations Pressure Air Temp Water Temp Dewpoint Dewpoint Depression Visibility Wind Speed Wind Dir Waves Ship Positions

Barfleur

Operator: Brittany Ferries

Last reported at 2017-May-27 02:00 UTC. Time now 2017-May-27 02:17 UTC.
Position N 50°42' W 001°59'.

Length 158 m; draft 5 m.

Type: Passenger vessel. MMSI: 227289000.

Date/timePositionNaut miles runAvg speedWind from/ knotsBaromVisibWave heightAir tempDewpointWater temp
2017-May-27 02:00N 50°42' W 001°59'0 0.0
2017-May-27 01:30N 50°42' W 001°59'0 0.0
2017-May-27 01:00N 50°42' W 001°59'0 0.0
2017-May-27 00:30N 50°42' W 001°59'0 0.0
2017-May-27 00:00N 50°42' W 001°59'0 0.0
2017-May-26 23:30N 50°42' W 001°59'0 0.0
2017-May-26 23:00N 50°42' W 001°59'0 0.0
2017-May-26 22:30N 50°42' W 001°59'0 0.0
2017-May-26 22:00N 50°42' W 001°59'0 0.0
2017-May-26 21:30N 50°42' W 001°59'0 0.0
2017-May-26 21:00N 50°42' W 001°59'0 0.5
2017-May-26 20:30N 50°42' W 001°59'510.2
2017-May-26 20:01N 50°38' W 001°54'918.0
2017-May-26 19:31N 50°30' W 001°49'917.6
2017-May-26 19:00N 50°21' W 001°46'1017.8
2017-May-26 18:28N 50°12' W 001°43'9 0.9
2017-May-26 09:08N 50°20' W 001°49'217.8
2017-May-26 09:00N 50°22' W 001°49'917.8
2017-May-26 08:30N 50°31' W 001°51'816.8
2017-May-26 08:00N 50°39' W 001°55'5 9.1
2017-May-26 07:30N 50°42' W 001°59'0 0.1
2017-May-26 07:00N 50°42' W 001°59'0 0.0
2017-May-26 06:30N 50°42' W 001°59'0 0.0
2017-May-26 06:00N 50°42' W 001°59'0 0.0
2017-May-26 05:30N 50°42' W 001°59'0 0.0
2017-May-26 05:00N 50°42' W 001°59'0 0.0
2017-May-26 04:30N 50°42' W 001°59'0 0.0
2017-May-26 04:00N 50°42' W 001°59'0 0.0
2017-May-26 03:30N 50°42' W 001°59'0 0.0
2017-May-26 03:00N 50°42' W 001°59'0 0.0
2017-May-26 02:30N 50°42' W 001°59'0 0.0
2017-May-26 02:00N 50°42' W 001°59'0 0.0
2017-May-26 01:30N 50°42' W 001°59'0 0.0
2017-May-26 01:00N 50°42' W 001°59'0 0.0
2017-May-26 00:30N 50°42' W 001°59'0 0.0
2017-May-26 00:00N 50°42' W 001°59'0 0.0
2017-May-25 23:30N 50°42' W 001°59'0 0.0
2017-May-25 23:00N 50°42' W 001°59'0 0.0
2017-May-25 22:30N 50°42' W 001°59'0 0.0
2017-May-25 22:00N 50°42' W 001°59'0 0.0
2017-May-25 21:30N 50°42' W 001°59'0 0.0
2017-May-25 21:00N 50°42' W 001°59'0 0.2
2017-May-25 20:30N 50°42' W 001°59'510.0
2017-May-25 20:00N 50°38' W 001°55'1018.2
2017-May-25 19:29N 50°29' W 001°51'1717.8
2017-May-25 18:32N 50°12' W 001°48'017.7
2017-May-25 18:30N 50°12' W 001°47'1617.9
2017-May-25 17:37N 49°56' W 001°44'1717.0
2017-May-25 16:38N 49°40' W 001°38'12 1.9
2017-May-25 10:37N 49°51' W 001°43'218.4
2017-May-25 10:30N 49°53' W 001°44'918.4
2017-May-25 10:00N 50°02' W 001°45'918.5
2017-May-25 09:30N 50°12' W 001°46'1818.3
2017-May-25 08:32N 50°29' W 001°51'117.9
2017-May-25 08:29N 50°30' W 001°52'817.5
2017-May-25 08:00N 50°38' W 001°54'510.5
2017-May-25 07:30N 50°42' W 001°59'0 0.9
2017-May-25 07:00N 50°42' W 001°59'0 0.0
2017-May-25 06:30N 50°42' W 001°59'0 0.0
2017-May-25 06:00N 50°42' W 001°59'1 1.6
2017-May-25 05:30N 50°42' W 001°58'611.4
2017-May-25 05:01N 50°37' W 001°54'917.1
2017-May-25 04:30N 50°29' W 001°49'1414.9
2017-May-25 03:35N 50°16' W 001°47'114.6
2017-May-25 03:30N 50°14' W 001°47'1014.5
2017-May-25 02:47N 50°04' W 001°47'23 4.5
2017-May-24 21:45N 49°45' W 001°27'0 0.2
2017-May-24 21:27N 49°45' W 001°27'6 8.0
2017-May-24 20:43N 49°42' W 001°34'311.5
2017-May-24 20:27N 49°40' W 001°37'4 0.8
2017-May-24 14:49N 49°44' W 001°39'1 1.3
2017-May-24 14:22N 49°44' W 001°38'2 2.5
2017-May-24 13:24N 49°41' W 001°39'1 0.6
2017-May-24 11:22N 49°40' W 001°39'716.0
2017-May-24 10:55N 49°47' W 001°43'817.9
2017-May-24 10:28N 49°55' W 001°45'917.4
2017-May-24 09:57N 50°04' W 001°45'816.7
2017-May-24 09:30N 50°11' W 001°46'916.6
2017-May-24 08:59N 50°20' W 001°48'1018.7
2017-May-24 08:28N 50°29' W 001°51'818.2
2017-May-24 08:01N 50°37' W 001°54'611.3
2017-May-24 07:30N 50°42' W 001°59'1 1.1
2017-May-24 07:00N 50°42' W 001°59'0 0.0
2017-May-24 06:30N 50°42' W 001°59'0 0.0
2017-May-24 06:00N 50°42' W 001°59'2 3.3
2017-May-24 05:30N 50°42' W 001°57'713.0
2017-May-24 05:00N 50°36' W 001°53'7 0.3
2017-May-23 08:31N 50°29' W 001°51'218.3
2017-May-23 08:26N 50°30' W 001°51'818.2
2017-May-23 08:00N 50°38' W 001°54'510.9
2017-May-23 07:31N 50°42' W 001°59'0 0.4
2017-May-23 07:00N 50°42' W 001°59'0 0.0
2017-May-23 06:31N 50°42' W 001°59'0 0.0
2017-May-23 06:01N 50°42' W 001°59'0 0.0
2017-May-23 05:30N 50°42' W 001°59'0 0.0
2017-May-23 05:01N 50°42' W 001°59'0 0.0
2017-May-23 04:31N 50°42' W 001°59'0 0.0
2017-May-23 04:01N 50°42' W 001°59'0 0.0
2017-May-23 03:30N 50°42' W 001°59'0 0.0
2017-May-23 03:01N 50°42' W 001°59'0 0.0
2017-May-23 02:30N 50°42' W 001°59'0 0.0
2017-May-23 02:01N 50°42' W 001°59'0 0.0
2017-May-23 01:30N 50°42' W 001°59'0 0.0
2017-May-23 01:01N 50°42' W 001°59'0 0.0
2017-May-23 00:31N 50°42' W 001°59'0 0.0
2017-May-23 00:01N 50°42' W 001°59'0 0.0
2017-May-22 23:31N 50°42' W 001°59'0 0.0
2017-May-22 23:00N 50°42' W 001°59'0 0.0
2017-May-22 22:31N 50°42' W 001°59'0 0.0
2017-May-22 22:01N 50°42' W 001°59'0 0.0
2017-May-22 21:31N 50°42' W 001°59'0 0.0
2017-May-22 21:00N 50°42' W 001°59'2 4.7
2017-May-22 20:31N 50°41' W 001°57'510.5
2017-May-22 20:00N 50°36' W 001°53'815.9
2017-May-22 19:30N 50°28' W 001°51'32 3.4
2017-May-22 10:20N 49°57' W 001°43'716.5
2017-May-22 09:54N 50°04' W 001°45'716.8
2017-May-22 09:30N 50°10' W 001°46'1018.2
2017-May-22 08:58N 50°20' W 001°48'918.2
2017-May-22 08:28N 50°29' W 001°52'918.5
2017-May-22 08:00N 50°37' W 001°54'611.7
2017-May-22 07:30N 50°42' W 001°59'0 1.0
2017-May-22 07:00N 50°42' W 001°59'0 0.0
2017-May-22 06:30N 50°42' W 001°59'0 0.0
2017-May-22 06:00N 50°42' W 001°59'0 0.0
2017-May-22 05:30N 50°42' W 001°59'0 0.0
2017-May-22 05:00N 50°42' W 001°59'0 0.0
2017-May-22 04:30N 50°42' W 001°59'0 0.0
2017-May-22 04:00N 50°42' W 001°59'0 0.0
2017-May-22 03:30N 50°42' W 001°59'0 0.0
2017-May-22 03:00N 50°42' W 001°59'0 0.0
2017-May-22 02:30N 50°42' W 001°59'0 0.0
2017-May-22 02:00N 50°42' W 001°59'0 0.0
2017-May-22 01:30N 50°42' W 001°59'0 0.0
2017-May-22 01:00N 50°42' W 001°59'0 0.0
2017-May-22 00:30N 50°42' W 001°59'0 0.0
2017-May-22 00:00N 50°42' W 001°59'0 0.0
2017-May-21 23:30N 50°42' W 001°59'0 0.0
2017-May-21 23:00N 50°42' W 001°59'0 0.0
2017-May-21 22:30N 50°42' W 001°59'0 0.0
2017-May-21 22:00N 50°42' W 001°59'0 0.0
2017-May-21 21:30N 50°42' W 001°59'0 0.0
2017-May-21 21:00N 50°42' W 001°59'0 0.2
2017-May-21 20:31N 50°42' W 001°59'4 8.1
2017-May-21 20:00N 50°39' W 001°55'917.5
2017-May-21 19:30N 50°31' W 001°51'918.4
2017-May-21 19:00N 50°22' W 001°49'1018.2
2017-May-21 18:29N 50°12' W 001°47'7 0.8
2017-May-21 09:03N 50°19' W 001°50'117.8
2017-May-21 09:00N 50°20' W 001°51'1117.9
2017-May-21 08:25N 50°30' W 001°54'818.4
2017-May-21 08:00N 50°38' W 001°54'510.3
2017-May-21 07:31N 50°42' W 001°59'0 1.0
2017-May-21 07:01N 50°42' W 001°59'0 0.0
2017-May-21 06:31N 50°42' W 001°59'0 0.0
2017-May-21 06:00N 50°42' W 001°59'0 0.0
2017-May-21 05:30N 50°42' W 001°59'0 0.0
2017-May-21 05:01N 50°42' W 001°59'0 0.0
2017-May-21 04:31N 50°42' W 001°59'0 0.0
2017-May-21 04:01N 50°42' W 001°59'0 0.0
2017-May-21 03:30N 50°42' W 001°59'0 0.0
2017-May-21 03:01N 50°42' W 001°59'0 0.0
2017-May-21 02:30N 50°42' W 001°59'0 0.0
2017-May-21 02:01N 50°42' W 001°59'0 0.0
2017-May-21 01:31N 50°42' W 001°59'0 0.0
2017-May-21 01:01N 50°42' W 001°59'0 0.0
2017-May-21 00:30N 50°42' W 001°59'0 0.0
2017-May-21 00:01N 50°42' W 001°59'0 0.0
2017-May-20 23:30N 50°42' W 001°59'0 0.0
2017-May-20 23:01N 50°42' W 001°59'0 0.0
2017-May-20 22:31N 50°42' W 001°59'0 0.0
2017-May-20 22:00N 50°42' W 001°59'0 0.0
2017-May-20 21:30N 50°42' W 001°59'0 0.0
2017-May-20 21:00N 50°42' W 001°59'0 0.2
2017-May-20 20:31N 50°42' W 001°60'4 7.6
2017-May-20 20:01N 50°40' W 001°55'816.8
2017-May-20 19:30N 50°31' W 001°51'3 0.2
2017-May-20 08:26N 50°29' W 001°53'716.8
2017-May-20 08:00N 50°36' W 001°54'613.0
2017-May-20 07:30N 50°42' W 001°58'1 2.3
2017-May-20 07:00N 50°42' W 001°59'0 0.0
2017-May-20 06:30N 50°42' W 001°59'0 0.0
2017-May-20 06:00N 50°42' W 001°59'0 0.0
2017-May-20 05:30N 50°42' W 001°59'0 0.0
2017-May-20 05:00N 50°42' W 001°59'0 0.0
2017-May-20 04:30N 50°42' W 001°59'0 0.0
2017-May-20 04:00N 50°42' W 001°59'0 0.0
2017-May-20 03:30N 50°42' W 001°59'0 0.0
2017-May-20 03:00N 50°42' W 001°59'0 0.0
2017-May-20 02:30N 50°42' W 001°59'0 0.0
2017-May-20 02:00N 50°42' W 001°59'0 0.0
2017-May-20 01:30N 50°42' W 001°59'0 0.0
2017-May-20 01:00N 50°42' W 001°59'0 0.0
2017-May-20 00:30N 50°42' W 001°59'0 0.0
2017-May-20 00:00N 50°42' W 001°59'0 0.0
2017-May-19 23:30N 50°42' W 001°59'0 0.0
2017-May-19 23:00N 50°42' W 001°59'0 0.0
2017-May-19 22:30N 50°42' W 001°59'0 0.0
2017-May-19 22:00N 50°42' W 001°59'0 0.0
2017-May-19 21:30N 50°42' W 001°59'0 0.0
2017-May-19 21:00N 50°42' W 001°59'0 0.1
2017-May-19 20:31N 50°42' W 001°59'3 5.8
2017-May-19 20:00N 50°40' W 001°56'815.2
2017-May-19 19:29N 50°33' W 001°52'4 0.4
2017-May-19 08:23N 50°29' W 001°51'717.6
2017-May-19 08:01N 50°36' W 001°54'713.7
2017-May-19 07:30N 50°42' W 001°58'1 2.5
2017-May-19 07:00N 50°42' W 001°59'0 0.0
2017-May-19 06:30N 50°42' W 001°59'0 0.0
2017-May-19 06:00N 50°42' W 001°59'0 0.0
2017-May-19 05:30N 50°42' W 001°59'0 0.0
2017-May-19 05:00N 50°42' W 001°59'0 0.0
2017-May-19 04:31N 50°42' W 001°59'0 0.0
2017-May-19 04:00N 50°42' W 001°59'0 0.0
2017-May-19 03:30N 50°42' W 001°59'0 0.0
2017-May-19 03:00N 50°42' W 001°59'0 0.0
2017-May-19 02:30N 50°42' W 001°59'0 0.0
2017-May-19 02:01N 50°42' W 001°59'0 0.0
2017-May-19 01:30N 50°42' W 001°59'0 0.0
2017-May-19 01:00N 50°42' W 001°59'0 0.0
2017-May-19 00:31N 50°42' W 001°59'0 0.0
2017-May-19 00:00N 50°42' W 001°59'0 0.0
2017-May-18 23:30N 50°42' W 001°59'0 0.0
2017-May-18 23:01N 50°42' W 001°59'0 0.0
2017-May-18 22:30N 50°42' W 001°59'0 0.0
2017-May-18 22:00N 50°42' W 001°59'0 0.0
2017-May-18 21:30N 50°42' W 001°59'0 0.0
2017-May-18 21:00N 50°42' W 001°59'0 0.2
2017-May-18 20:30N 50°42' W 001°59'4 8.4
2017-May-18 20:00N 50°39' W 001°55'816.9
2017-May-18 19:30N 50°31' W 001°51'1 0.1
2017-May-18 08:37N 50°31' W 001°52'218.3
2017-May-18 08:30N 50°33' W 001°53'815.6
2017-May-18 08:00N 50°40' W 001°56'3 6.0
2017-May-18 07:30N 50°42' W 001°59'0 0.0
2017-May-18 07:00N 50°42' W 001°59'0 0.0
2017-May-18 06:30N 50°42' W 001°59'0 0.0
2017-May-18 06:00N 50°42' W 001°59'1 2.8
2017-May-18 05:30N 50°42' W 001°57'611.9
2017-May-18 05:00N 50°37' W 001°53'9 0.5
2017-May-17 08:46N 50°27' W 001°51'518.0
2017-May-17 08:30N 50°32' W 001°52'816.7
2017-May-17 08:00N 50°40' W 001°56'3 6.8
2017-May-17 07:30N 50°42' W 001°59'0 0.0
2017-May-17 07:00N 50°42' W 001°59'0 0.0
2017-May-17 06:30N 50°42' W 001°59'0 0.0
2017-May-17 06:00N 50°42' W 001°59'2 3.5
2017-May-17 05:30N 50°41' W 001°57'612.8
2017-May-17 05:00N 50°36' W 001°54'714.3
2017-May-17 04:30N 50°28' W 001°52'  

Dump ship's entire track history